Terminal Aerodrome Forecast
Issued by NWS

Home | Current Version | Previous Version | Text Only | Print | Product List | Glossary On
Versions: 1 2 3 4 5 6 7 8 9 10 11 12 13 14 15
000
FTUS46 KSGX 250914 AAA
TAFPSP
TAF AMD
KPSP 250914Z 2509/2606 33012G22KT P6SM SCT080 SCT200
     FM251100 33010G18KT P6SM SCT250
     FM251800 32015G25KT P6SM FEW080 SCT250
     FM252100 33020G30KT P6SM SCT080 BKN250
      TEMPO 2600/2604 11010KT P6SM BKN070=

USA.gov is the U.S. government's official web portal to all federal, state and local government web resources and services.